Airfield :
LOGIN :

Register | Disclaimer

   EN    FR    IT 

 










Legend :    VFR   Marginal VFR   IFR   Intensive IFR   Very Intensive IFR
Visi :
Ceiling :
>= 8 km
>= 3000ft
5 to 8 km
1000 to 3000 ft
1500m to 5 km
500 to 1000 ft
800 to 1500m
200 to 500 ft
< 800m
< 200 ft
Symbols :   Thunderstorms  Fog  Heavy snow  Heavy precipitations  Wind > 20 kt
SIGMETs :     Misc.  Thunderstorms  Icing  Turbulence  Mountain Waves  Volcanic Ashes







- Airport Elevation : 20 ft
- IATA code : OBN
- Download approach charts


EGEO - Oban

CURRENT METAR :
  • 211020Z 22012KT 9999 FEW014 BKN022 BKN039 16/13 Q1012

EXPIRED METARs :
  • 210950Z 20008KT 9999 VCSH FEW018 SCT033 BKN042 17/13 Q1012
  • 210920Z 22009KT 9999 VCSH FEW015 SCT024 BKN043 16/12 Q1012
  • 210850Z 22010KT 9999 VCSH FEW014 SCT021 SCT040 16/13 Q1012
  • 210820Z 21011KT 9999 VCSH FEW014 SCT021 SCT038 15/13 Q1012

TAF TAF EGEO
Valid from the 21 at 09:00 until the 21 at 17:00 UTC


210902Z 2109/2117 22012KT 9999 FEW014 SCT030
PROB30
TEMPO 2109/2114 8000 -SHRA BKN014
TEMPO 2114/2117 6000 RA BKN012
PROB40
TEMPO 2114/2117 3000 +RA
No reported NOTAMs for that airfield.



MET'MAP, your aeronautical weather chart ! - Copyright ORBIFLY December 2007 - Disclaimer

ORBIFLY MET'MAP TEAM :

Programming & Development : Alexandra Zaïnal
Concept & Development : Baudouin d'Aumeries
Co-Development & Prog : Marc-Olivier Méhu
Technical & hardware support : Manuel Goepfert

Contact : metmap@orbifly.com




SOURCES & CREDITS :

   NOAA